createdAt,value
2023-05-24T00:03:25.270Z,4.70
2023-05-24T00:08:30.511Z,4.40
2023-05-24T00:13:40.029Z,4.53
2023-05-24T00:18:47.349Z,4.00
2023-05-24T00:23:52.528Z,4.20
2023-05-24T00:29:00.648Z,4.33
2023-05-24T00:34:05.861Z,3.87
2023-05-24T00:39:15.715Z,3.50
2023-05-24T00:44:26.777Z,4.27
2023-05-24T00:49:33.196Z,4.20
2023-05-24T00:54:40.940Z,5.23
2023-05-24T00:59:53.788Z,4.20
2023-05-24T01:05:00.234Z,4.00
2023-05-24T01:10:20.132Z,4.37
2023-05-24T01:15:34.603Z,4.93
2023-05-24T01:20:43.244Z,4.37
2023-05-24T01:26:17.940Z,4.90
2023-05-24T01:31:28.972Z,5.13
2023-05-24T01:36:34.081Z,4.07
2023-05-24T01:41:46.045Z,5.17
2023-05-24T01:47:07.875Z,3.83
2023-05-24T01:52:18.844Z,3.70
2023-05-24T01:57:26.190Z,5.10
2023-05-24T02:02:34.165Z,3.80
2023-05-24T02:07:39.463Z,4.17
2023-05-24T02:12:45.176Z,4.10
2023-05-24T02:17:54.891Z,3.77
2023-05-24T02:23:00.729Z,4.00
2023-05-24T02:28:06.084Z,3.83
2023-05-24T02:33:14.361Z,4.87
2023-05-24T02:38:19.663Z,4.07
2023-05-24T02:43:24.885Z,3.63
2023-05-24T02:48:33.142Z,3.60
2023-05-24T02:53:38.698Z,3.93
2023-05-24T02:58:45.197Z,3.57
2023-05-24T03:03:55.873Z,3.60
2023-05-24T03:09:01.993Z,3.63
2023-05-24T03:14:07.633Z,4.37
2023-05-24T03:19:17.487Z,3.87
2023-05-24T03:24:22.763Z,3.23
2023-05-24T03:29:28.127Z,3.60
2023-05-24T03:34:41.306Z,3.83
2023-05-24T03:39:47.547Z,3.90
2023-05-24T03:45:14.970Z,3.67
2023-05-24T03:50:27.371Z,3.17
2023-05-24T03:55:32.502Z,3.17
2023-05-24T04:00:37.856Z,5.10
2023-05-24T04:05:48.693Z,4.53
2023-05-24T04:10:58.489Z,4.83
2023-05-24T04:16:06.005Z,4.27
2023-05-24T04:21:16.913Z,3.60
2023-05-24T04:26:33.352Z,4.17
2023-05-24T04:31:38.725Z,3.73
2023-05-24T04:36:54.629Z,3.33
2023-05-24T04:42:00.961Z,3.70
2023-05-24T04:47:12.911Z,4.57
2023-05-24T04:52:22.918Z,4.70
2023-05-24T04:57:29.045Z,3.23
2023-05-24T05:02:37.213Z,3.60
2023-05-24T05:07:45.620Z,3.43
2023-05-24T05:12:50.727Z,3.90
2023-05-24T05:17:59.836Z,3.57
2023-05-24T05:23:07.901Z,3.63
2023-05-24T05:28:13.428Z,3.03
2023-05-24T05:33:21.283Z,3.70
2023-05-24T05:38:29.101Z,3.60
2023-05-24T05:43:38.135Z,4.03
2023-05-24T05:48:46.831Z,3.83
2023-05-24T05:53:54.778Z,4.23
2023-05-24T05:59:00.231Z,3.97
2023-05-24T06:04:16.011Z,3.93
2023-05-24T06:09:24.909Z,4.43
2023-05-24T06:14:32.695Z,3.67
2023-05-24T06:19:38.743Z,3.60
2023-05-24T06:24:46.788Z,4.00
2023-05-24T06:29:53.595Z,3.70
2023-05-24T06:35:07.094Z,4.40
2023-05-24T06:40:16.352Z,3.60
2023-05-24T06:45:21.727Z,5.43
2023-05-24T06:50:27.008Z,3.67
2023-05-24T06:55:34.822Z,4.20
2023-05-24T07:00:44.704Z,3.87
2023-05-24T07:05:51.766Z,4.07
2023-05-24T07:11:01.806Z,4.27
2023-05-24T07:16:10.616Z,3.87
2023-05-24T07:21:17.936Z,4.13
2023-05-24T07:26:25.669Z,3.83
2023-05-24T07:31:32.656Z,4.30
2023-05-24T07:36:37.830Z,3.80
2023-05-24T07:41:46.033Z,5.13
2023-05-24T07:46:53.223Z,3.70
2023-05-24T07:52:00.494Z,3.90
2023-05-24T07:57:11.233Z,4.13
2023-05-24T08:02:17.352Z,3.80
2023-05-24T08:12:51.684Z,4.33
2023-05-24T08:17:57.014Z,4.63
2023-05-24T08:23:04.869Z,3.30
2023-05-24T08:28:15.624Z,4.27
2023-05-24T08:33:23.080Z,4.47
2023-05-24T08:38:29.652Z,5.23
2023-05-24T08:43:38.418Z,5.07
2023-05-24T08:48:49.632Z,4.17
2023-05-24T08:53:59.173Z,4.27
2023-05-24T08:59:08.936Z,4.63
2023-05-24T09:04:15.100Z,4.00
2023-05-24T09:09:25.919Z,4.50
2023-05-24T09:14:35.866Z,4.60
2023-05-24T09:19:44.788Z,4.60
2023-05-24T09:24:51.522Z,5.00
2023-05-24T09:29:59.212Z,5.93
2023-05-24T09:35:07.511Z,4.10
2023-05-24T09:40:21.960Z,4.40
2023-05-24T09:45:33.598Z,4.90
2023-05-24T09:50:40.022Z,5.43
2023-05-24T09:55:54.138Z,4.53
2023-05-24T10:01:14.146Z,8.47
2023-05-24T10:06:21.235Z,4.47
2023-05-24T10:11:33.719Z,4.87
2023-05-24T10:16:42.272Z,4.90
2023-05-24T10:21:50.191Z,4.93
2023-05-24T10:26:59.248Z,4.40
2023-05-24T10:32:08.875Z,4.73
2023-05-24T10:37:20.009Z,5.60
2023-05-24T10:42:26.627Z,6.07
2023-05-24T10:47:35.850Z,5.20
2023-05-24T10:52:44.112Z,5.30
2023-05-24T10:58:12.881Z,4.40
2023-05-24T11:03:30.245Z,4.90
2023-05-24T11:08:39.250Z,4.77
2023-05-24T11:13:45.415Z,4.27
2023-05-24T11:19:00.910Z,4.90
2023-05-24T11:24:10.272Z,4.23
2023-05-24T11:29:19.344Z,4.03
2023-05-24T11:34:31.161Z,4.10
2023-05-24T11:39:38.816Z,3.80
2023-05-24T11:44:44.129Z,3.83
2023-05-24T11:50:01.413Z,3.43
2023-05-24T11:55:07.523Z,3.83
2023-05-24T12:00:17.380Z,4.20
2023-05-24T12:05:26.785Z,4.43
2023-05-24T12:10:34.484Z,3.80
2023-05-24T12:15:41.046Z,5.13
2023-05-24T12:20:49.178Z,4.50
2023-05-24T12:26:03.645Z,3.80
2023-05-24T12:31:14.993Z,3.97
2023-05-24T12:36:24.287Z,4.57
2023-05-24T12:41:36.784Z,4.10
2023-05-24T12:46:42.050Z,3.90
2023-05-24T12:51:51.737Z,5.00
2023-05-24T12:57:02.414Z,4.37
2023-05-24T13:02:08.892Z,4.63
2023-05-24T13:07:17.157Z,4.23
2023-05-24T13:12:24.271Z,5.00
2023-05-24T13:17:29.856Z,4.13
2023-05-24T13:22:40.504Z,4.97
2023-05-24T13:27:52.287Z,5.33
2023-05-24T13:33:29.659Z,4.13
2023-05-24T13:38:54.317Z,4.00
2023-05-24T13:44:17.159Z,3.73
2023-05-24T13:49:23.501Z,4.47
2023-05-24T13:54:32.451Z,3.60
2023-05-24T13:59:38.063Z,4.40
2023-05-24T14:04:43.324Z,4.07
2023-05-24T14:09:54.649Z,4.27
2023-05-24T14:15:00.462Z,4.37
2023-05-24T14:20:07.637Z,3.83
2023-05-24T14:25:17.151Z,4.17
2023-05-24T14:30:22.271Z,4.40
2023-05-24T14:35:28.192Z,4.20
2023-05-24T14:40:37.559Z,3.80
2023-05-24T14:45:44.293Z,3.87
2023-05-24T14:50:51.992Z,4.20
2023-05-24T14:55:59.744Z,3.63
2023-05-24T15:01:05.107Z,4.10
2023-05-24T15:06:13.004Z,4.17
2023-05-24T15:11:21.106Z,3.77
2023-05-24T15:16:26.607Z,3.77
2023-05-24T15:21:34.404Z,4.00
2023-05-24T15:26:44.637Z,4.07
2023-05-24T15:31:51.083Z,3.30
2023-05-24T15:36:56.160Z,3.40
2023-05-24T15:42:04.285Z,3.97
2023-05-24T15:47:09.693Z,3.70
2023-05-24T15:52:16.516Z,4.17
2023-05-24T15:57:24.288Z,4.07
2023-05-24T16:02:30.184Z,3.40
2023-05-24T16:07:35.581Z,4.30
2023-05-24T16:12:46.425Z,3.83
2023-05-24T16:17:51.708Z,3.40
2023-05-24T16:22:57.038Z,3.53
2023-05-24T16:28:04.742Z,3.93
2023-05-24T16:33:09.929Z,4.60
2023-05-24T16:38:15.056Z,3.77
2023-05-24T16:43:23.223Z,4.10
2023-05-24T16:48:32.004Z,3.50
2023-05-24T16:53:37.253Z,3.23
2023-05-24T16:58:45.101Z,3.00
2023-05-24T17:03:51.456Z,3.00
2023-05-24T17:08:57.399Z,3.17
2023-05-24T17:14:09.513Z,2.90
2023-05-24T17:19:19.606Z,3.23
2023-05-24T17:24:27.906Z,3.60
2023-05-24T17:29:36.418Z,3.43
2023-05-24T17:34:41.574Z,3.40
2023-05-24T17:39:47.531Z,3.70
2023-05-24T17:44:56.531Z,3.00
2023-05-24T17:50:02.876Z,3.30
2023-05-24T17:55:12.691Z,2.83
2023-05-24T18:00:22.939Z,3.10
2023-05-24T18:05:28.081Z,3.70
2023-05-24T18:10:35.654Z,3.30
2023-05-24T18:15:46.738Z,3.70
2023-05-24T18:20:52.213Z,3.40
2023-05-24T18:26:00.249Z,3.23
2023-05-24T18:31:15.095Z,3.43
2023-05-24T18:36:20.314Z,3.40
2023-05-24T18:41:25.581Z,2.80
2023-05-24T18:46:33.884Z,3.50
2023-05-24T18:51:39.156Z,3.87
2023-05-24T18:56:45.771Z,3.97
2023-05-24T19:01:55.501Z,4.10
2023-05-24T19:07:00.840Z,4.73
2023-05-24T19:12:06.319Z,3.97
2023-05-24T19:17:15.559Z,4.80
2023-05-24T19:22:20.688Z,4.60
2023-05-24T19:27:25.908Z,4.53
2023-05-24T19:32:35.945Z,4.53
2023-05-24T19:37:42.660Z,4.53
2023-05-24T19:42:49.609Z,4.73
2023-05-24T19:47:58.182Z,4.93
2023-05-24T19:53:05.692Z,4.97
2023-05-24T19:58:10.960Z,4.47
2023-05-24T20:03:19.581Z,6.00
2023-05-24T20:08:26.404Z,5.10
2023-05-24T20:13:33.892Z,5.30
2023-05-24T20:18:44.330Z,5.33
2023-05-24T20:23:50.862Z,5.47
2023-05-24T20:28:56.153Z,5.40
2023-05-24T20:34:04.094Z,6.00
2023-05-24T20:39:09.651Z,5.53
2023-05-24T20:44:15.010Z,6.47
2023-05-24T20:49:24.829Z,5.40
2023-05-24T20:54:29.918Z,5.63
2023-05-24T20:59:35.359Z,5.13
2023-05-24T21:04:43.141Z,5.50
2023-05-24T21:09:57.568Z,6.57
2023-05-24T21:15:02.894Z,6.13
2023-05-24T21:20:13.013Z,6.17
2023-05-24T21:25:18.943Z,6.83
2023-05-24T21:30:24.157Z,6.00
2023-05-24T21:35:32.816Z,6.17
2023-05-24T21:40:38.008Z,6.87
2023-05-24T21:45:43.416Z,6.23
2023-05-24T21:50:52.456Z,6.37
2023-05-24T21:55:57.673Z,6.83
2023-05-24T22:01:03.390Z,6.00
2023-05-24T22:06:13.283Z,6.50
2023-05-24T22:11:23.683Z,5.97
2023-05-24T22:16:29.437Z,6.33
2023-05-24T22:21:38.535Z,6.70
2023-05-24T22:26:47.446Z,6.40
2023-05-24T22:32:00.435Z,5.97
2023-05-24T22:37:08.501Z,6.00
2023-05-24T22:42:17.051Z,5.80
2023-05-24T22:47:33.692Z,6.23
2023-05-24T22:52:43.229Z,6.87
2023-05-24T22:57:48.488Z,6.50
2023-05-24T23:02:54.570Z,5.67
2023-05-24T23:08:06.381Z,6.47
2023-05-24T23:13:11.948Z,6.40
2023-05-24T23:18:18.331Z,7.17
2023-05-24T23:23:27.530Z,6.47
2023-05-24T23:28:32.955Z,8.13
2023-05-24T23:33:38.711Z,6.07
2023-05-24T23:38:50.388Z,6.47
2023-05-24T23:43:55.596Z,6.47
2023-05-24T23:49:00.781Z,6.70
2023-05-24T23:54:09.941Z,7.40
2023-05-24T23:59:15.161Z,6.87
